createdAt,value
2018-09-28T00:01:05.498Z,0
2018-09-28T00:02:15.449Z,0
2018-09-28T00:03:25.377Z,0
2018-09-28T00:04:35.361Z,0
2018-09-28T00:05:45.309Z,0
2018-09-28T00:06:54.998Z,0
2018-09-28T00:08:04.933Z,0
2018-09-28T00:09:14.359Z,0
2018-09-28T00:10:24.294Z,0
2018-09-28T00:11:34.241Z,0
2018-09-28T00:12:43.667Z,0
2018-09-28T00:13:53.345Z,0
2018-09-28T00:15:03.285Z,0
2018-09-28T00:16:13.213Z,0
2018-09-28T00:17:22.648Z,0
2018-09-28T00:18:32.346Z,0
2018-09-28T00:19:42.299Z,0
2018-09-28T00:20:51.983Z,0
2018-09-28T00:22:01.980Z,0
2018-09-28T00:23:11.709Z,0
2018-09-28T00:24:21.632Z,0
2018-09-28T00:25:31.063Z,0
2018-09-28T00:26:41.018Z,0
2018-09-28T00:27:50.719Z,0
2018-09-28T00:29:00.402Z,0
2018-09-28T00:30:10.350Z,0
2018-09-28T00:31:20.344Z,0
2018-09-28T00:32:30.037Z,0
2018-09-28T00:33:39.976Z,0
2018-09-28T00:34:49.925Z,0
2018-09-28T00:35:59.945Z,0
2018-09-28T00:37:10.139Z,0
2018-09-28T00:38:19.830Z,0
2018-09-28T00:39:29.773Z,0
2018-09-28T00:40:39.722Z,0
2018-09-28T00:41:49.160Z,0
2018-09-28T00:42:59.107Z,0
2018-09-28T00:44:09.045Z,0
2018-09-28T00:45:18.738Z,0
2018-09-28T00:46:28.686Z,0
2018-09-28T00:47:38.385Z,0
2018-09-28T00:48:47.822Z,0
2018-09-28T00:49:57.775Z,0
2018-09-28T00:51:07.708Z,0
2018-09-28T00:52:17.655Z,0
2018-09-28T00:53:27.598Z,0
2018-09-28T00:54:37.545Z,0
2018-09-28T00:55:47.484Z,0
2018-09-28T00:56:57.421Z,0
2018-09-28T00:58:07.374Z,0
2018-09-28T00:59:17.325Z,0
2018-09-28T01:00:27.263Z,0
2018-09-28T01:01:36.944Z,0
2018-09-28T01:02:46.631Z,0
2018-09-28T01:03:56.577Z,0
2018-09-28T01:05:06.267Z,0
2018-09-28T01:06:16.201Z,0
2018-09-28T01:07:26.150Z,0
2018-09-28T01:08:35.822Z,0
2018-09-28T01:09:45.763Z,0
2018-09-28T01:10:55.700Z,0
2018-09-28T01:12:05.644Z,0
2018-09-28T01:13:15.579Z,0
2018-09-28T01:14:25.521Z,0
2018-09-28T01:15:34.947Z,0
2018-09-28T01:16:44.902Z,0
2018-09-28T01:17:54.317Z,0
2018-09-28T01:19:04.244Z,0
2018-09-28T01:20:14.194Z,0
2018-09-28T01:21:24.129Z,0
2018-09-28T01:22:34.083Z,0
2018-09-28T01:23:44.045Z,0
2018-09-28T01:24:53.985Z,0
2018-09-28T01:26:03.949Z,0
2018-09-28T01:27:13.641Z,0
2018-09-28T01:28:23.594Z,0
2018-09-28T01:29:33.535Z,0
2018-09-28T01:30:43.221Z,0
2018-09-28T01:31:53.163Z,0
2018-09-28T01:33:03.114Z,0
2018-09-28T01:34:12.800Z,0
2018-09-28T01:35:22.739Z,0
2018-09-28T01:36:32.676Z,0
2018-09-28T01:37:42.355Z,0
2018-09-28T01:38:52.304Z,0
2018-09-28T01:40:02.233Z,0
2018-09-28T01:41:12.174Z,0
2018-09-28T01:42:22.136Z,0
2018-09-28T01:43:32.068Z,0
2018-09-28T01:44:42.015Z,0
2018-09-28T01:45:51.953Z,0
2018-09-28T01:47:01.623Z,0
2018-09-28T01:48:11.055Z,0
2018-09-28T01:49:20.993Z,0
2018-09-28T01:50:30.960Z,0
2018-09-28T01:51:40.658Z,0
2018-09-28T01:52:50.089Z,0
2018-09-28T01:54:00.032Z,0
2018-09-28T01:55:09.723Z,0
2018-09-28T01:56:19.671Z,0
2018-09-28T01:57:29.605Z,0
2018-09-28T01:58:39.549Z,0
2018-09-28T01:59:49.497Z,0
2018-09-28T02:00:59.448Z,0
2018-09-28T02:02:09.395Z,0
2018-09-28T02:03:19.333Z,0
2018-09-28T02:04:29.280Z,0
2018-09-28T02:05:38.986Z,0
2018-09-28T02:06:48.667Z,0
2018-09-28T02:07:58.345Z,0
2018-09-28T02:09:08.282Z,0
2018-09-28T02:10:18.227Z,0
2018-09-28T02:11:28.149Z,0
2018-09-28T02:12:38.488Z,0
2018-09-28T02:13:48.616Z,0
2018-09-28T02:14:58.543Z,0
2018-09-28T02:16:08.536Z,0
2018-09-28T02:17:18.492Z,0
2018-09-28T02:18:28.450Z,0
2018-09-28T02:19:38.148Z,0
2018-09-28T02:20:47.859Z,0
2018-09-28T02:21:57.817Z,0
2018-09-28T02:23:07.495Z,0
2018-09-28T02:24:17.196Z,0
2018-09-28T02:25:26.607Z,0
2018-09-28T02:26:36.555Z,0
2018-09-28T02:27:46.249Z,0
2018-09-28T02:28:55.675Z,0
2018-09-28T02:30:05.633Z,0
2018-09-28T02:31:15.328Z,0
2018-09-28T02:32:25.032Z,0
2018-09-28T02:33:34.965Z,0
2018-09-28T02:34:44.653Z,0
2018-09-28T02:35:54.601Z,0
2018-09-28T02:37:04.317Z,0
2018-09-28T02:38:14.002Z,0
2018-09-28T02:39:23.988Z,0
2018-09-28T02:40:33.915Z,0
2018-09-28T02:41:43.596Z,0
2018-09-28T02:42:53.551Z,0
2018-09-28T02:44:03.495Z,0
2018-09-28T02:45:13.437Z,0
2018-09-28T02:46:23.391Z,0
2018-09-28T02:47:33.083Z,0
2018-09-28T02:48:43.040Z,0
2018-09-28T02:49:52.722Z,0
2018-09-28T02:51:02.696Z,0
2018-09-28T02:52:12.393Z,0
2018-09-28T02:53:22.346Z,0
2018-09-28T02:54:32.272Z,0
2018-09-28T02:55:42.218Z,0
2018-09-28T02:56:52.119Z,0
2018-09-28T02:58:01.972Z,0
2018-09-28T02:59:11.723Z,0
2018-09-28T03:00:21.657Z,0
2018-09-28T03:01:31.615Z,0
2018-09-28T03:02:41.561Z,0
2018-09-28T03:03:51.497Z,0
2018-09-28T03:05:01.441Z,0
2018-09-28T03:06:11.281Z,0
2018-09-28T03:07:20.802Z,0
2018-09-28T03:08:30.754Z,0
2018-09-28T03:09:40.446Z,0
2018-09-28T03:10:50.398Z,0
2018-09-28T03:12:00.096Z,0
2018-09-28T03:13:10.061Z,0
2018-09-28T03:14:20.007Z,0
2018-09-28T03:15:29.719Z,0
2018-09-28T03:16:39.665Z,0
2018-09-28T03:17:49.345Z,0
2018-09-28T03:18:59.265Z,0
2018-09-28T03:20:08.964Z,0
2018-09-28T03:21:18.897Z,0
2018-09-28T03:22:28.866Z,0
2018-09-28T03:23:38.803Z,0
2018-09-28T03:24:48.765Z,0
2018-09-28T03:25:59.114Z,0
2018-09-28T03:27:09.275Z,0
2018-09-28T03:28:19.211Z,0
2018-09-28T03:29:29.168Z,0
2018-09-28T03:30:38.597Z,0
2018-09-28T03:31:48.568Z,0
2018-09-28T03:32:58.540Z,0
2018-09-28T03:34:07.716Z,0
2018-09-28T03:35:17.394Z,0
2018-09-28T03:36:27.343Z,0
2018-09-28T03:37:37.295Z,0
2018-09-28T03:38:46.995Z,0
2018-09-28T03:39:56.690Z,0
2018-09-28T03:41:06.629Z,0
2018-09-28T03:42:16.570Z,0
2018-09-28T03:43:26.531Z,0
2018-09-28T03:44:36.483Z,0
2018-09-28T03:45:46.490Z,0
2018-09-28T03:46:56.211Z,0
2018-09-28T03:48:06.162Z,0
2018-09-28T03:49:16.117Z,0
2018-09-28T03:50:25.560Z,0
2018-09-28T03:51:35.265Z,0
2018-09-28T03:52:44.933Z,0
2018-09-28T03:53:54.643Z,0
2018-09-28T03:55:04.601Z,0
2018-09-28T03:56:14.549Z,0
2018-09-28T03:57:24.501Z,0
2018-09-28T03:58:34.445Z,0
2018-09-28T03:59:44.381Z,0
2018-09-28T04:00:54.321Z,0
2018-09-28T04:02:04.009Z,0
2018-09-28T04:03:13.952Z,0
2018-09-28T04:04:23.896Z,0
2018-09-28T04:05:33.592Z,0
2018-09-28T04:06:43.301Z,0
2018-09-28T04:07:53.601Z,0
2018-09-28T04:09:03.557Z,0
2018-09-28T04:10:13.507Z,0
2018-09-28T04:11:23.466Z,0
2018-09-28T04:12:33.409Z,0
2018-09-28T04:13:43.363Z,0
2018-09-28T04:14:53.095Z,0
2018-09-28T04:16:03.082Z,0
2018-09-28T04:17:13.044Z,0
2018-09-28T04:18:22.736Z,0
2018-09-28T04:19:32.476Z,0
2018-09-28T04:20:42.161Z,0
2018-09-28T04:21:52.003Z,0
2018-09-28T04:23:02.194Z,0
2018-09-28T04:24:11.875Z,0
2018-09-28T04:25:21.833Z,0
2018-09-28T04:26:31.788Z,4
2018-09-28T04:27:41.804Z,4
2018-09-28T04:28:51.501Z,0
2018-09-28T04:30:01.187Z,4
2018-09-28T04:31:11.131Z,4
2018-09-28T04:32:21.083Z,8
2018-09-28T04:33:31.019Z,8
2018-09-28T04:34:40.982Z,8
2018-09-28T04:35:50.941Z,12
2018-09-28T04:37:00.886Z,12
2018-09-28T04:38:10.581Z,16
2018-09-28T04:39:20.265Z,20
2018-09-28T04:40:29.182Z,28
2018-09-28T04:41:38.879Z,32
2018-09-28T04:42:48.579Z,40
2018-09-28T04:43:58.522Z,48
2018-09-28T04:45:08.453Z,60
2018-09-28T04:46:18.479Z,72
2018-09-28T04:47:28.176Z,88
2018-09-28T04:48:37.858Z,108
2018-09-28T04:49:47.543Z,128
2018-09-28T04:50:57.495Z,152
2018-09-28T04:52:07.182Z,176
2018-09-28T04:53:16.870Z,212
2018-09-28T04:54:26.831Z,244
2018-09-28T04:55:36.527Z,280
2018-09-28T04:56:46.486Z,320
2018-09-28T04:57:56.441Z,364
2018-09-28T04:59:06.140Z,404
2018-09-28T05:00:15.820Z,444
2018-09-28T05:01:25.774Z,484
2018-09-28T05:02:35.722Z,532
2018-09-28T05:03:45.667Z,580
2018-09-28T05:04:55.598Z,636
2018-09-28T05:06:05.542Z,696
2018-09-28T05:07:15.487Z,748
2018-09-28T05:08:24.943Z,788
2018-09-28T05:09:34.900Z,820
2018-09-28T05:10:44.848Z,872
2018-09-28T05:11:54.577Z,916
2018-09-28T05:13:04.497Z,948
2018-09-28T05:14:14.554Z,1008
2018-09-28T05:15:24.519Z,1128
2018-09-28T05:16:34.475Z,1260
2018-09-28T05:17:44.415Z,1348
2018-09-28T05:18:54.111Z,1424
2018-09-28T05:20:03.794Z,1496
2018-09-28T05:21:13.742Z,1584
2018-09-28T05:22:23.176Z,1712
2018-09-28T05:23:33.116Z,1800
2018-09-28T05:24:43.064Z,1800
2018-09-28T05:25:52.766Z,1912
2018-09-28T05:27:02.719Z,2036
2018-09-28T05:28:12.681Z,2120
2018-09-28T05:29:22.375Z,2272
2018-09-28T05:30:32.372Z,2492
2018-09-28T05:31:42.868Z,2528
2018-09-28T05:32:53.984Z,2152
2018-09-28T05:34:04.321Z,1780
2018-09-28T05:35:14.274Z,1512
2018-09-28T05:36:24.231Z,1336
2018-09-28T05:37:34.196Z,1244
2018-09-28T05:38:43.883Z,1244
2018-09-28T05:39:53.834Z,1284
2018-09-28T05:41:03.796Z,1284
2018-09-28T05:42:13.490Z,1260
2018-09-28T05:43:23.435Z,1300
2018-09-28T05:44:33.431Z,1396
2018-09-28T05:45:43.375Z,1452
2018-09-28T05:46:53.325Z,1432
2018-09-28T05:48:03.021Z,1468
2018-09-28T05:49:12.483Z,1420
2018-09-28T05:50:21.925Z,1380
2018-09-28T05:51:32.262Z,1388
2018-09-28T05:52:42.427Z,1444
2018-09-28T05:53:52.126Z,1580
2018-09-28T05:55:02.069Z,1620
2018-09-28T05:56:11.773Z,1624
2018-09-28T05:57:21.735Z,1648
2018-09-28T05:58:31.833Z,1544
2018-09-28T05:59:41.352Z,1672
2018-09-28T06:00:51.530Z,1788
2018-09-28T06:02:01.216Z,1700
2018-09-28T06:03:11.209Z,1652
2018-09-28T06:04:20.646Z,1584
2018-09-28T06:05:30.933Z,1352
2018-09-28T06:06:40.847Z,1332
2018-09-28T06:07:50.800Z,1176
2018-09-28T06:09:00.742Z,996
2018-09-28T06:10:10.666Z,920
2018-09-28T06:11:20.366Z,880
2018-09-28T06:12:30.046Z,884
2018-09-28T06:13:40.016Z,896
2018-09-28T06:14:49.970Z,940
2018-09-28T06:15:59.143Z,972
2018-09-28T06:17:08.831Z,1016
2018-09-28T06:18:18.259Z,1124
2018-09-28T06:19:28.266Z,1264
2018-09-28T06:20:38.214Z,1364
2018-09-28T06:21:47.908Z,1468
2018-09-28T06:22:57.860Z,1576
2018-09-28T06:24:08.044Z,1716
2018-09-28T06:25:18.089Z,1784
2018-09-28T06:26:28.045Z,1768
2018-09-28T06:27:37.749Z,1772
2018-09-28T06:28:47.685Z,1856
2018-09-28T06:29:57.700Z,1860
2018-09-28T06:31:07.771Z,1780
2018-09-28T06:32:17.951Z,1660
2018-09-28T06:33:27.951Z,1704
2018-09-28T06:34:37.911Z,1880
2018-09-28T06:35:47.792Z,1976
2018-09-28T06:36:57.788Z,2104
2018-09-28T06:38:07.253Z,2400
2018-09-28T06:39:17.263Z,2696
2018-09-28T06:40:27.238Z,2896
2018-09-28T06:41:37.476Z,3460
2018-09-28T06:42:46.940Z,4632
2018-09-28T06:43:56.910Z,6160
2018-09-28T06:45:06.860Z,6968
2018-09-28T06:46:16.554Z,7320
2018-09-28T06:47:26.534Z,7264
2018-09-28T06:48:36.497Z,7132
2018-09-28T06:49:46.206Z,7248
2018-09-28T06:50:55.908Z,7264
2018-09-28T06:52:05.893Z,7156
2018-09-28T06:53:15.323Z,7468
2018-09-28T06:54:25.544Z,8176
2018-09-28T06:55:35.504Z,9256
2018-09-28T06:56:45.481Z,9716
2018-09-28T06:57:55.433Z,10244
2018-09-28T06:59:05.388Z,10136
2018-09-28T07:00:15.648Z,10224
2018-09-28T07:01:25.257Z,9084
2018-09-28T07:02:34.953Z,7088
2018-09-28T07:03:44.920Z,6228
2018-09-28T07:04:54.876Z,6300
2018-09-28T07:06:04.971Z,6368
2018-09-28T07:07:15.019Z,6500
2018-09-28T07:08:24.757Z,6628
2018-09-28T07:09:34.859Z,7592
2018-09-28T07:10:44.856Z,8552
2018-09-28T07:11:55.265Z,8072
2018-09-28T07:13:05.602Z,6820
2018-09-28T07:14:15.567Z,6676
2018-09-28T07:15:25.517Z,6980
2018-09-28T07:16:35.750Z,7380
2018-09-28T07:17:45.524Z,8168
2018-09-28T07:18:55.353Z,9592
2018-09-28T07:20:04.836Z,10144
2018-09-28T07:21:14.906Z,10672
2018-09-28T07:22:24.877Z,10660
2018-09-28T07:23:34.884Z,10508
2018-09-28T07:24:45.208Z,10220
2018-09-28T07:25:54.767Z,10820
2018-09-28T07:27:04.751Z,10936
2018-09-28T07:28:14.454Z,11092
2018-09-28T07:29:24.150Z,11316
2018-09-28T07:30:34.136Z,11136
2018-09-28T07:31:43.893Z,11468
2018-09-28T07:32:53.637Z,11232
2018-09-28T07:34:03.606Z,10992
2018-09-28T07:35:13.560Z,10736
2018-09-28T07:36:24.019Z,10008
2018-09-28T07:37:34.404Z,10560
2018-09-28T07:38:44.105Z,11404
2018-09-28T07:39:53.796Z,11684
2018-09-28T07:41:03.503Z,12176
2018-09-28T07:42:12.757Z,12252
2018-09-28T07:43:22.828Z,12516
2018-09-28T07:44:32.544Z,12772
2018-09-28T07:45:42.518Z,12660
2018-09-28T07:46:52.467Z,12672
2018-09-28T07:48:02.940Z,12684
2018-09-28T07:49:12.958Z,12372
2018-09-28T07:50:22.935Z,11868
2018-09-28T07:51:32.696Z,11792
2018-09-28T07:52:42.637Z,11780
2018-09-28T07:53:52.395Z,11832
2018-09-28T07:55:01.841Z,11960
2018-09-28T07:56:11.540Z,12028
2018-09-28T07:57:21.498Z,12420
2018-09-28T07:58:31.471Z,12996
2018-09-28T07:59:41.425Z,16440
2018-09-28T08:00:51.410Z,22880
2018-09-28T08:02:01.420Z,22176
2018-09-28T08:03:11.382Z,26336
2018-09-28T08:04:21.117Z,26432
2018-09-28T08:05:31.085Z,28000
2018-09-28T08:06:40.762Z,27840
2018-09-28T08:07:50.703Z,28096
2018-09-28T08:09:00.650Z,31264
2018-09-28T08:10:10.653Z,29024
2018-09-28T08:11:20.113Z,21792
2018-09-28T08:12:30.080Z,32448
2018-09-28T08:13:39.789Z,32288
2018-09-28T08:14:49.769Z,31360
2018-09-28T08:15:59.728Z,30368
2018-09-28T08:17:09.418Z,29984
2018-09-28T08:18:19.143Z,25568
2018-09-28T08:19:29.103Z,26560
2018-09-28T08:20:39.073Z,31872
2018-09-28T08:21:49.034Z,30848
2018-09-28T08:22:58.753Z,31712
2018-09-28T08:24:08.743Z,33312
2018-09-28T08:25:18.456Z,34112
2018-09-28T08:26:28.449Z,36640
2018-09-28T08:27:38.405Z,37376
2018-09-28T08:28:48.384Z,35456
2018-09-28T08:29:58.336Z,37568
2018-09-28T08:31:08.299Z,38016
2018-09-28T08:32:18.260Z,37888
2018-09-28T08:33:28.226Z,39552
2018-09-28T08:34:38.196Z,39680
2018-09-28T08:35:47.891Z,42272
2018-09-28T08:36:57.501Z,42176
2018-09-28T08:38:07.204Z,31168
2018-09-28T08:39:17.161Z,40544
2018-09-28T08:40:26.881Z,44608
2018-09-28T08:41:36.110Z,42528
2018-09-28T08:42:46.105Z,43520
2018-09-28T08:43:56.131Z,48928
2018-09-28T08:45:05.601Z,48032
2018-09-28T08:46:15.579Z,33664
2018-09-28T08:47:25.553Z,44576
2018-09-28T08:48:35.344Z,36224
2018-09-28T08:49:45.149Z,61376
2018-09-28T08:50:54.867Z,52128
2018-09-28T08:52:04.840Z,37760
2018-09-28T08:53:14.826Z,23648
2018-09-28T08:54:25.119Z,29856
2018-09-28T08:55:35.464Z,38048
2018-09-28T08:56:45.202Z,60448
2018-09-28T08:57:55.161Z,65056
2018-09-28T08:59:05.245Z,54048
2018-09-28T09:00:15.270Z,36160
2018-09-28T09:01:25.236Z,40768
2018-09-28T09:02:34.942Z,37728
2018-09-28T09:03:44.895Z,36864
2018-09-28T09:04:54.899Z,37024
2018-09-28T09:06:04.866Z,38496
2018-09-28T09:07:14.832Z,38432
2018-09-28T09:08:24.785Z,41152
2018-09-28T09:09:34.499Z,58976
2018-09-28T09:10:44.458Z,39520
2018-09-28T09:11:54.429Z,54944
2018-09-28T09:13:04.415Z,58752
2018-09-28T09:14:14.411Z,39104
2018-09-28T09:15:24.374Z,36512
2018-09-28T09:16:34.320Z,33280
2018-09-28T09:17:44.096Z,35488
2018-09-28T09:18:53.863Z,50048
2018-09-28T09:20:03.830Z,57408
2018-09-28T09:21:13.524Z,49088
2018-09-28T09:22:22.966Z,41504
2018-09-28T09:23:32.647Z,54304
2018-09-28T09:24:42.327Z,47136
2018-09-28T09:25:52.285Z,47552
2018-09-28T09:27:02.235Z,70464
2018-09-28T09:28:12.202Z,72256
2018-09-28T09:29:21.908Z,61920
2018-09-28T09:30:31.660Z,72096
2018-09-28T09:31:41.638Z,59296
2018-09-28T09:32:51.623Z,48576
2018-09-28T09:34:01.366Z,41152
2018-09-28T09:35:11.336Z,39872
2018-09-28T09:36:21.313Z,42656
2018-09-28T09:37:31.319Z,39520
2018-09-28T09:38:41.273Z,42944
2018-09-28T09:39:50.968Z,52512
2018-09-28T09:41:00.664Z,53280
2018-09-28T09:42:10.633Z,47808
2018-09-28T09:43:20.597Z,44256
2018-09-28T09:44:30.310Z,41984
2018-09-28T09:45:40.027Z,37984
2018-09-28T09:46:50.007Z,36128
2018-09-28T09:47:59.984Z,36896
2018-09-28T09:49:09.946Z,38816
2018-09-28T09:50:19.696Z,41696
2018-09-28T09:51:29.647Z,54464
2018-09-28T09:52:39.369Z,47904
2018-09-28T09:53:49.109Z,48896
2018-09-28T09:54:59.386Z,48224
2018-09-28T09:56:09.354Z,49472
2018-09-28T09:57:19.318Z,51680
2018-09-28T09:58:29.318Z,47744
2018-09-28T09:59:39.270Z,45824
2018-09-28T10:00:49.255Z,44960
2018-09-28T10:01:59.261Z,57248
2018-09-28T10:03:08.959Z,68256
2018-09-28T10:04:18.911Z,62688
2018-09-28T10:05:28.378Z,57568
2018-09-28T10:06:37.881Z,83296
2018-09-28T10:07:47.872Z,96416
2018-09-28T10:08:57.602Z,74848
2018-09-28T10:10:07.562Z,75232
2018-09-28T10:11:17.562Z,93856
2018-09-28T10:12:28.136Z,79520
2018-09-28T10:13:38.374Z,65920
2018-09-28T10:14:48.088Z,52800
2018-09-28T10:15:57.813Z,50912
2018-09-28T10:17:07.506Z,74048
2018-09-28T10:18:17.461Z,41600
2018-09-28T10:19:27.860Z,56320
2018-09-28T10:20:37.857Z,40992
2018-09-28T10:21:47.890Z,67616
2018-09-28T10:22:57.859Z,43168
2018-09-28T10:24:07.855Z,35904
2018-09-28T10:25:17.562Z,52960
2018-09-28T10:26:27.526Z,117376
2018-09-28T10:27:37.862Z,111616
2018-09-28T10:28:48.591Z,118976
2018-09-28T10:29:58.550Z,122464
2018-09-28T10:31:08.521Z,99904
2018-09-28T10:32:18.493Z,54016
2018-09-28T10:33:28.283Z,77600
2018-09-28T10:34:38.567Z,86656
2018-09-28T10:35:48.339Z,99584
2018-09-28T10:36:58.300Z,56864
2018-09-28T10:38:08.266Z,60832
2018-09-28T10:39:18.559Z,61600
2018-09-28T10:40:28.850Z,52832
2018-09-28T10:41:39.118Z,46848
2018-09-28T10:42:49.103Z,108736
2018-09-28T10:43:59.080Z,75840
2018-09-28T10:45:09.064Z,109376
2018-09-28T10:46:19.088Z,119840
2018-09-28T10:47:29.077Z,116128
2018-09-28T10:48:39.051Z,117504
2018-09-28T10:49:49.018Z,111968
2018-09-28T10:50:59.340Z,108320
2018-09-28T10:52:10.659Z,111392
2018-09-28T10:53:20.074Z,112128
2018-09-28T10:54:30.050Z,110784
2018-09-28T10:55:40.031Z,115136
2018-09-28T10:56:49.729Z,111456
2018-09-28T10:57:59.704Z,96800
2018-09-28T10:59:09.409Z,93152
2018-09-28T11:00:19.560Z,100544
2018-09-28T11:01:29.703Z,102880
2018-09-28T11:02:39.393Z,71200
2018-09-28T11:03:49.825Z,112192
2018-09-28T11:04:59.636Z,88352
2018-09-28T11:06:09.074Z,119232
2018-09-28T11:07:19.041Z,121664
2018-09-28T11:08:29.369Z,28320
2018-09-28T11:09:39.726Z,105184
2018-09-28T11:10:50.385Z,92352
2018-09-28T11:12:00.453Z,114016
2018-09-28T11:13:10.408Z,124672
2018-09-28T11:14:20.119Z,125760
2018-09-28T11:15:30.462Z,124416
2018-09-28T11:16:40.493Z,128256
2018-09-28T11:17:49.934Z,121088
2018-09-28T11:18:59.550Z,117792
2018-09-28T11:20:09.837Z,122176
2018-09-28T11:21:20.067Z,76000
2018-09-28T11:22:30.121Z,130400
2018-09-28T11:23:40.084Z,127424
2018-09-28T11:24:49.805Z,31456
2018-09-28T11:25:59.521Z,33536
2018-09-28T11:27:09.533Z,35648
2018-09-28T11:28:19.058Z,136896
2018-09-28T11:29:28.772Z,138080
2018-09-28T11:30:38.735Z,138592
2018-09-28T11:31:48.423Z,140352
2018-09-28T11:32:58.385Z,123776
2018-09-28T11:34:08.337Z,115040
2018-09-28T11:35:18.301Z,131136
2018-09-28T11:36:28.310Z,135104
2018-09-28T11:37:38.131Z,123200
2018-09-28T11:38:48.176Z,132416
2018-09-28T11:39:58.036Z,112896
2018-09-28T11:41:08.009Z,83744
2018-09-28T11:42:17.991Z,81024
2018-09-28T11:43:28.030Z,100288
2018-09-28T11:44:37.731Z,120768
2018-09-28T11:45:47.672Z,120032
2018-09-28T11:46:57.803Z,121024
2018-09-28T11:48:07.508Z,123616
2018-09-28T11:49:17.917Z,118688
2018-09-28T11:50:27.672Z,124864
2018-09-28T11:51:37.937Z,129344
2018-09-28T11:52:47.748Z,124800
2018-09-28T11:53:57.724Z,134880
2018-09-28T11:55:07.688Z,124288
2018-09-28T11:56:17.671Z,125088
2018-09-28T11:57:28.146Z,128416
2018-09-28T11:58:37.963Z,26304
2018-09-28T11:59:47.941Z,27840
2018-09-28T12:00:57.670Z,29728
2018-09-28T12:02:07.663Z,24896
2018-09-28T12:03:17.537Z,54464
2018-09-28T12:04:27.422Z,126688
2018-09-28T12:05:37.136Z,126240
2018-09-28T12:06:47.330Z,129216
2018-09-28T12:07:57.504Z,127520
2018-09-28T12:09:07.213Z,130240
2018-09-28T12:10:17.277Z,132800
2018-09-28T12:11:27.252Z,135648
2018-09-28T12:12:37.623Z,137312
2018-09-28T12:13:47.406Z,137696
2018-09-28T12:14:57.354Z,141728
2018-09-28T12:16:07.063Z,113856
2018-09-28T12:17:16.516Z,100480
2018-09-28T12:18:26.912Z,108256
2018-09-28T12:19:36.910Z,127648
2018-09-28T12:20:46.600Z,139232
2018-09-28T12:21:56.947Z,119968
2018-09-28T12:23:06.925Z,58176
2018-09-28T12:24:16.990Z,37824
2018-09-28T12:25:27.073Z,146496
2018-09-28T12:26:37.059Z,145824
2018-09-28T12:27:47.131Z,152800
2018-09-28T12:28:56.659Z,106912
2018-09-28T12:30:06.695Z,140160
2018-09-28T12:31:16.444Z,80736
2018-09-28T12:32:26.414Z,140768
2018-09-28T12:33:36.620Z,137440
2018-09-28T12:34:46.750Z,117184
2018-09-28T12:35:56.716Z,60064
2018-09-28T12:37:06.407Z,46048
2018-09-28T12:38:16.106Z,91392
2018-09-28T12:39:26.362Z,61824
2018-09-28T12:40:35.810Z,36832
2018-09-28T12:41:45.786Z,35904
2018-09-28T12:42:55.992Z,32640
2018-09-28T12:44:05.494Z,30432
2018-09-28T12:45:15.953Z,32192
2018-09-28T12:46:25.930Z,42432
2018-09-28T12:47:35.629Z,36448
2018-09-28T12:48:45.552Z,48256
2018-09-28T12:49:55.747Z,52064
2018-09-28T12:51:05.455Z,53920
2018-09-28T12:52:15.516Z,53472
2018-09-28T12:53:25.507Z,38656
2018-09-28T12:54:35.489Z,39232
2018-09-28T12:55:45.517Z,52192
2018-09-28T12:56:55.838Z,50816
2018-09-28T12:58:05.808Z,48480
2018-09-28T12:59:15.518Z,42688
2018-09-28T13:00:25.917Z,36608
2018-09-28T13:01:35.841Z,35776
2018-09-28T13:02:46.221Z,38592
2018-09-28T13:03:55.290Z,34848
2018-09-28T13:05:05.270Z,37536
2018-09-28T13:06:15.070Z,48064
2018-09-28T13:07:24.907Z,52160
2018-09-28T13:08:34.684Z,48896
2018-09-28T13:09:44.677Z,61472
2018-09-28T13:10:54.656Z,44864
2018-09-28T13:12:04.662Z,44224
2018-09-28T13:13:14.417Z,38144
2018-09-28T13:14:24.481Z,48448
2018-09-28T13:15:34.677Z,60608
2018-09-28T13:16:44.400Z,73024
2018-09-28T13:17:54.113Z,81056
2018-09-28T13:19:04.074Z,97312
2018-09-28T13:20:14.162Z,58624
2018-09-28T13:21:24.167Z,49856
2018-09-28T13:22:34.142Z,64608
2018-09-28T13:23:44.101Z,73824
2018-09-28T13:24:54.601Z,95936
2018-09-28T13:26:04.563Z,130784
2018-09-28T13:27:14.558Z,103488
2018-09-28T13:28:24.545Z,65984
2018-09-28T13:29:34.518Z,44640
2018-09-28T13:30:44.919Z,52896
2018-09-28T13:31:54.999Z,45856
2018-09-28T13:33:04.747Z,60352
2018-09-28T13:34:14.703Z,122432
2018-09-28T13:35:24.680Z,119008
2018-09-28T13:36:35.096Z,78368
2018-09-28T13:37:45.090Z,48384
2018-09-28T13:38:55.191Z,90464
2018-09-28T13:40:05.319Z,84800
2018-09-28T13:41:15.025Z,126016
2018-09-28T13:42:25.498Z,111200
2018-09-28T13:43:35.506Z,108736
2018-09-28T13:44:45.937Z,109056
2018-09-28T13:45:55.877Z,106560
2018-09-28T13:47:05.383Z,110624
2018-09-28T13:48:14.671Z,101632
2018-09-28T13:49:24.736Z,116032
2018-09-28T13:50:34.702Z,101632
2018-09-28T13:51:44.734Z,113152
2018-09-28T13:52:55.223Z,69376
2018-09-28T13:54:05.461Z,79328
2018-09-28T13:55:15.459Z,59872
2018-09-28T13:56:25.737Z,71328
2018-09-28T13:57:35.801Z,45920
2018-09-28T13:58:46.254Z,62592
2018-09-28T13:59:56.201Z,41696
2018-09-28T14:01:05.914Z,36128
2018-09-28T14:02:15.755Z,35488
2018-09-28T14:03:25.813Z,33472
2018-09-28T14:04:35.998Z,32256
2018-09-28T14:05:46.055Z,32768
2018-09-28T14:06:56.469Z,42496
2018-09-28T14:08:06.426Z,44960
2018-09-28T14:09:16.461Z,44608
2018-09-28T14:10:26.772Z,122016
2018-09-28T14:11:36.573Z,118912
2018-09-28T14:12:46.949Z,84864
2018-09-28T14:13:57.071Z,80544
2018-09-28T14:15:07.052Z,64896
2018-09-28T14:16:17.279Z,107136
2018-09-28T14:17:27.385Z,84576
2018-09-28T14:18:37.575Z,88320
2018-09-28T14:19:47.410Z,59520
2018-09-28T14:20:57.624Z,62400
2018-09-28T14:22:07.372Z,60320
2018-09-28T14:23:17.100Z,81568
2018-09-28T14:24:27.142Z,85024
2018-09-28T14:25:37.345Z,90784
2018-09-28T14:26:47.244Z,83200
2018-09-28T14:27:56.869Z,79904
2018-09-28T14:29:06.768Z,72224
2018-09-28T14:30:16.928Z,83904
2018-09-28T14:31:26.722Z,85632
2018-09-28T14:32:36.825Z,81632
2018-09-28T14:33:47.179Z,64672
2018-09-28T14:34:57.438Z,49664
2018-09-28T14:36:07.143Z,46624
2018-09-28T14:37:17.158Z,44640
2018-09-28T14:38:27.315Z,41056
2018-09-28T14:39:37.369Z,50240
2018-09-28T14:40:47.690Z,48864
2018-09-28T14:41:58.345Z,59552
2018-09-28T14:43:08.484Z,74208
2018-09-28T14:44:18.736Z,69600
2018-09-28T14:45:28.918Z,63296
2018-09-28T14:46:39.131Z,39200
2018-09-28T14:47:49.077Z,53088
2018-09-28T14:48:59.872Z,43328
2018-09-28T14:50:09.864Z,61120
2018-09-28T14:51:19.938Z,61024
2018-09-28T14:52:30.418Z,70176
2018-09-28T14:53:39.851Z,68320
2018-09-28T14:54:50.153Z,66656
2018-09-28T14:56:00.057Z,63424
2018-09-28T14:57:10.029Z,65088
2018-09-28T14:58:20.198Z,72704
2018-09-28T14:59:30.313Z,77664
2018-09-28T15:00:40.919Z,67680
2018-09-28T15:01:50.761Z,73056
2018-09-28T15:03:00.724Z,84448
2018-09-28T15:04:10.800Z,88064
2018-09-28T15:05:20.549Z,85312
2018-09-28T15:06:30.907Z,88096
2018-09-28T15:07:41.468Z,83264
2018-09-28T15:08:52.015Z,76288
2018-09-28T15:10:01.977Z,78624
2018-09-28T15:11:11.698Z,31072
2018-09-28T15:12:22.067Z,39168
2018-09-28T15:13:32.257Z,37824
2018-09-28T15:14:41.863Z,34560
2018-09-28T15:15:52.036Z,40896
2018-09-28T15:17:01.983Z,28256
2018-09-28T15:18:11.772Z,41920
2018-09-28T15:19:21.822Z,29696
2018-09-28T15:20:31.784Z,22816
2018-09-28T15:21:41.771Z,21760
2018-09-28T15:22:51.744Z,27392
2018-09-28T15:24:01.656Z,30336
2018-09-28T15:25:11.422Z,23040
2018-09-28T15:26:21.380Z,19488
2018-09-28T15:27:31.066Z,18816
2018-09-28T15:28:41.029Z,26560
2018-09-28T15:29:51.107Z,23072
2018-09-28T15:31:01.076Z,40512
2018-09-28T15:32:10.779Z,26784
2018-09-28T15:33:20.225Z,30592
2018-09-28T15:34:29.942Z,32832
2018-09-28T15:35:39.937Z,36512
2018-09-28T15:36:49.901Z,44128
2018-09-28T15:37:59.859Z,39808
2018-09-28T15:39:09.840Z,37600
2018-09-28T15:40:19.807Z,31360